createdAt,value
2019-03-30T00:00:04.230Z,0.00
2019-03-30T00:01:04.227Z,0.00
2019-03-30T00:02:04.206Z,0.00
2019-03-30T00:03:04.214Z,0.00
2019-03-30T00:04:04.185Z,0.00
2019-03-30T00:05:04.179Z,0.00
2019-03-30T00:06:04.162Z,0.00
2019-03-30T00:07:04.158Z,0.00
2019-03-30T00:08:04.156Z,0.00
2019-03-30T00:09:04.134Z,0.00
2019-03-30T00:10:04.117Z,0.00
2019-03-30T00:11:04.114Z,0.00
2019-03-30T00:12:04.097Z,0.00
2019-03-30T00:13:04.103Z,0.00
2019-03-30T00:14:04.073Z,0.00
2019-03-30T00:15:04.069Z,0.00
2019-03-30T00:16:04.053Z,0.00
2019-03-30T00:17:04.051Z,0.00
2019-03-30T00:18:04.041Z,0.00
2019-03-30T00:19:04.029Z,0.00
2019-03-30T00:20:04.007Z,0.00
2019-03-30T00:21:04.000Z,0.00
2019-03-30T00:22:03.990Z,0.00
2019-03-30T00:23:03.999Z,0.00
2019-03-30T00:24:03.963Z,0.00
2019-03-30T00:25:03.967Z,0.00
2019-03-30T00:26:03.942Z,0.00
2019-03-30T00:27:03.933Z,0.00
2019-03-30T00:28:03.934Z,0.00
2019-03-30T00:29:03.912Z,0.00
2019-03-30T00:30:03.897Z,0.00
2019-03-30T00:31:03.889Z,0.00
2019-03-30T00:32:03.880Z,0.00
2019-03-30T00:33:03.905Z,0.00
2019-03-30T00:34:03.934Z,0.00
2019-03-30T00:35:03.845Z,0.00
2019-03-30T00:36:03.840Z,0.00
2019-03-30T00:37:03.823Z,0.00
2019-03-30T00:38:03.822Z,0.00
2019-03-30T00:39:03.802Z,0.00
2019-03-30T00:40:03.789Z,0.00
2019-03-30T00:41:03.784Z,0.00
2019-03-30T00:42:03.764Z,0.00
2019-03-30T00:43:03.771Z,0.00
2019-03-30T00:44:03.756Z,0.00
2019-03-30T00:45:03.735Z,0.00
2019-03-30T00:46:03.724Z,0.00
2019-03-30T00:47:03.720Z,0.00
2019-03-30T00:48:03.714Z,0.00
2019-03-30T00:49:03.691Z,0.00
2019-03-30T00:50:03.676Z,0.00
2019-03-30T00:51:03.672Z,0.00
2019-03-30T00:52:03.655Z,0.00
2019-03-30T00:53:03.683Z,0.00
2019-03-30T00:54:03.632Z,0.00
2019-03-30T00:55:03.625Z,0.00
2019-03-30T00:56:03.610Z,0.00
2019-03-30T00:57:03.606Z,0.00
2019-03-30T00:58:03.590Z,0.00
2019-03-30T00:59:03.595Z,0.00
2019-03-30T01:00:03.565Z,0.00
2019-03-30T01:01:03.561Z,0.00
2019-03-30T01:02:03.544Z,0.00
2019-03-30T01:03:03.538Z,0.00
2019-03-30T01:04:03.535Z,0.00
2019-03-30T01:05:03.522Z,0.00
2019-03-30T01:06:03.499Z,0.00
2019-03-30T01:07:03.494Z,0.00
2019-03-30T01:08:03.478Z,0.00
2019-03-30T01:09:03.490Z,0.00
2019-03-30T01:10:03.457Z,0.00
2019-03-30T01:11:03.451Z,0.00
2019-03-30T01:12:03.434Z,0.00
2019-03-30T01:13:03.426Z,0.00
2019-03-30T01:14:03.426Z,0.00
2019-03-30T01:15:03.406Z,0.00
2019-03-30T01:16:03.393Z,0.00
2019-03-30T01:17:03.384Z,0.00
2019-03-30T01:18:03.370Z,0.00
2019-03-30T01:19:03.373Z,0.00
2019-03-30T01:20:03.843Z,0.00
2019-03-30T01:21:03.338Z,0.00
2019-03-30T01:22:03.332Z,0.00
2019-03-30T01:23:03.316Z,0.00
2019-03-30T01:24:03.315Z,0.00
2019-03-30T01:25:03.294Z,0.00
2019-03-30T01:26:03.279Z,0.00
2019-03-30T01:27:03.282Z,0.00
2019-03-30T01:28:03.258Z,0.00
2019-03-30T01:29:03.262Z,0.00
2019-03-30T01:30:03.235Z,0.00
2019-03-30T01:31:03.227Z,0.00
2019-03-30T01:32:03.214Z,0.00
2019-03-30T01:33:03.206Z,0.00
2019-03-30T01:34:03.208Z,0.00
2019-03-30T01:35:03.206Z,0.00
2019-03-30T01:36:03.169Z,0.00
2019-03-30T01:37:03.162Z,0.00
2019-03-30T01:38:03.148Z,0.00
2019-03-30T01:39:03.155Z,0.00
2019-03-30T01:40:03.126Z,0.00
2019-03-30T01:41:03.118Z,0.00
2019-03-30T01:42:03.103Z,0.00
2019-03-30T01:43:03.099Z,0.00
2019-03-30T01:44:03.093Z,0.00
2019-03-30T01:45:03.082Z,0.00
2019-03-30T01:46:03.059Z,0.00
2019-03-30T01:47:03.052Z,0.00
2019-03-30T01:48:03.037Z,0.00
2019-03-30T01:49:03.049Z,0.00
2019-03-30T01:50:16.178Z,0.00
2019-03-30T01:51:04.002Z,0.00
2019-03-30T01:52:02.999Z,0.00
2019-03-30T01:53:02.982Z,0.00
2019-03-30T01:54:02.994Z,0.00
2019-03-30T01:55:02.961Z,0.00
2019-03-30T01:56:02.953Z,0.00
2019-03-30T01:57:02.942Z,0.00
2019-03-30T01:58:02.931Z,0.00
2019-03-30T01:59:02.929Z,0.00
2019-03-30T02:00:02.910Z,0.00
2019-03-30T02:01:02.895Z,0.00
2019-03-30T02:02:02.893Z,0.00
2019-03-30T02:03:02.872Z,0.00
2019-03-30T02:04:02.884Z,0.00
2019-03-30T02:05:02.851Z,0.00
2019-03-30T02:06:02.851Z,0.00
2019-03-30T02:07:02.831Z,0.00
2019-03-30T02:08:02.827Z,0.00
2019-03-30T02:09:02.823Z,0.00
2019-03-30T02:10:02.799Z,0.00
2019-03-30T02:11:02.786Z,0.00
2019-03-30T02:12:02.779Z,0.00
2019-03-30T02:13:02.767Z,0.00
2019-03-30T02:14:02.770Z,0.00
2019-03-30T02:15:02.740Z,0.00
2019-03-30T02:16:02.739Z,0.00
2019-03-30T02:17:02.718Z,0.00
2019-03-30T02:18:02.712Z,0.00
2019-03-30T02:19:02.709Z,0.00
2019-03-30T02:20:02.692Z,0.00
2019-03-30T02:21:02.674Z,0.00
2019-03-30T02:22:02.668Z,0.00
2019-03-30T02:23:02.654Z,0.00
2019-03-30T02:24:02.661Z,0.00
2019-03-30T02:25:02.634Z,0.00
2019-03-30T02:26:02.623Z,0.00
2019-03-30T02:27:02.608Z,0.00
2019-03-30T02:28:02.603Z,0.00
2019-03-30T02:29:02.601Z,0.00
2019-03-30T02:30:02.585Z,0.00
2019-03-30T02:31:02.571Z,0.00
2019-03-30T02:32:02.559Z,0.00
2019-03-30T02:33:02.547Z,0.00
2019-03-30T02:34:02.551Z,0.00
2019-03-30T02:35:02.522Z,0.00
2019-03-30T02:36:02.518Z,0.00
2019-03-30T02:37:02.503Z,0.00
2019-03-30T02:38:02.493Z,0.00
2019-03-30T02:39:02.492Z,0.00
2019-03-30T02:40:02.474Z,0.00
2019-03-30T02:41:02.473Z,0.00
2019-03-30T02:42:02.457Z,0.00
2019-03-30T02:43:02.435Z,0.00
2019-03-30T02:44:02.428Z,0.00
2019-03-30T02:45:02.432Z,0.00
2019-03-30T02:46:02.411Z,0.00
2019-03-30T02:47:02.391Z,0.00
2019-03-30T02:48:02.388Z,0.00
2019-03-30T02:49:02.370Z,0.00
2019-03-30T02:50:02.377Z,0.00
2019-03-30T02:51:02.348Z,0.00
2019-03-30T02:52:02.422Z,0.00
2019-03-30T02:53:02.326Z,0.00
2019-03-30T02:54:02.324Z,0.00
2019-03-30T02:55:02.323Z,0.00
2019-03-30T02:56:02.297Z,0.00
2019-03-30T02:57:02.282Z,0.00
2019-03-30T02:58:02.279Z,0.00
2019-03-30T02:59:02.262Z,0.00
2019-03-30T03:00:02.272Z,0.00
2019-03-30T03:01:02.237Z,0.00
2019-03-30T03:02:02.235Z,0.00
2019-03-30T03:03:02.216Z,0.00
2019-03-30T03:04:02.214Z,0.00
2019-03-30T03:05:02.210Z,0.00
2019-03-30T03:06:02.199Z,0.00
2019-03-30T03:07:02.186Z,0.00
2019-03-30T03:08:02.169Z,0.00
2019-03-30T03:09:02.154Z,0.00
2019-03-30T03:10:02.165Z,0.00
2019-03-30T03:11:02.131Z,0.00
2019-03-30T03:12:02.125Z,0.00
2019-03-30T03:13:02.115Z,0.00
2019-03-30T03:14:02.109Z,0.00
2019-03-30T03:15:02.100Z,0.00
2019-03-30T03:16:02.089Z,0.00
2019-03-30T03:17:02.080Z,0.00
2019-03-30T03:18:02.060Z,0.00
2019-03-30T03:19:02.045Z,0.00
2019-03-30T03:20:02.052Z,0.00
2019-03-30T03:21:08.066Z,0.00
2019-03-30T03:22:03.022Z,0.00
2019-03-30T03:23:02.010Z,0.00
2019-03-30T03:24:01.993Z,0.00
2019-03-30T03:25:02.010Z,0.00
2019-03-30T03:26:01.975Z,0.00
2019-03-30T03:27:01.961Z,0.00
2019-03-30T03:28:01.954Z,0.00
2019-03-30T03:29:01.944Z,0.00
2019-03-30T03:30:01.967Z,0.00
2019-03-30T03:31:01.930Z,0.00
2019-03-30T03:32:01.926Z,0.00
2019-03-30T03:33:01.895Z,0.00
2019-03-30T03:34:02.131Z,0.00
2019-03-30T03:35:02.086Z,0.00
2019-03-30T03:36:01.865Z,0.00
2019-03-30T03:37:01.847Z,0.00
2019-03-30T03:38:01.841Z,0.00
2019-03-30T03:39:01.828Z,0.00
2019-03-30T03:40:01.821Z,0.00
2019-03-30T03:41:01.823Z,0.00
2019-03-30T03:42:01.800Z,0.00
2019-03-30T03:43:01.783Z,0.00
2019-03-30T03:44:01.775Z,0.00
2019-03-30T03:45:01.785Z,0.00
2019-03-30T03:46:01.790Z,0.00
2019-03-30T03:47:01.751Z,0.00
2019-03-30T03:48:01.740Z,0.00
2019-03-30T03:49:01.721Z,0.00
2019-03-30T03:50:01.726Z,0.00
2019-03-30T03:51:01.708Z,0.00
2019-03-30T03:52:01.741Z,0.00
2019-03-30T03:53:01.673Z,0.00
2019-03-30T03:54:01.669Z,0.00
2019-03-30T03:55:01.658Z,0.00
2019-03-30T03:56:01.695Z,0.00
2019-03-30T03:57:01.639Z,0.00
2019-03-30T03:58:01.634Z,0.00
2019-03-30T03:59:01.609Z,0.00
2019-03-30T04:00:01.602Z,0.00
2019-03-30T04:01:01.602Z,0.00
2019-03-30T04:02:01.581Z,0.00
2019-03-30T04:03:01.565Z,0.00
2019-03-30T04:04:01.563Z,0.00
2019-03-30T04:05:01.549Z,0.00
2019-03-30T04:06:01.551Z,0.00
2019-03-30T04:07:01.522Z,0.00
2019-03-30T04:08:01.516Z,0.00
2019-03-30T04:09:01.505Z,0.00
2019-03-30T04:10:01.530Z,0.00
2019-03-30T04:11:01.491Z,0.00
2019-03-30T04:12:01.472Z,0.00
2019-03-30T04:13:01.458Z,0.00
2019-03-30T04:14:01.454Z,0.00
2019-03-30T04:15:01.437Z,0.00
2019-03-30T04:16:01.451Z,0.00
2019-03-30T04:17:01.416Z,0.00
2019-03-30T04:18:01.408Z,0.00
2019-03-30T04:19:01.410Z,0.00
2019-03-30T04:20:01.386Z,0.00
2019-03-30T04:21:01.382Z,0.00
2019-03-30T04:22:01.366Z,0.00
2019-03-30T04:23:01.351Z,0.00
2019-03-30T04:24:01.349Z,0.00
2019-03-30T04:25:01.331Z,0.00
2019-03-30T04:26:01.337Z,0.00
2019-03-30T04:27:01.314Z,0.00
2019-03-30T04:28:01.302Z,0.00
2019-03-30T04:29:01.310Z,0.00
2019-03-30T04:30:01.280Z,0.00
2019-03-30T04:31:01.279Z,0.00
2019-03-30T04:32:01.265Z,0.00
2019-03-30T04:33:01.242Z,0.00
2019-03-30T04:34:01.248Z,0.00
2019-03-30T04:35:01.220Z,4.00
2019-03-30T04:36:01.231Z,4.00
2019-03-30T04:37:01.198Z,4.00
2019-03-30T04:38:01.191Z,0.00
2019-03-30T04:39:01.177Z,4.00
2019-03-30T04:40:01.181Z,4.00
2019-03-30T04:41:01.168Z,4.00
2019-03-30T04:42:01.150Z,8.00
2019-03-30T04:43:01.134Z,4.00
2019-03-30T04:44:01.131Z,8.00
2019-03-30T04:45:01.114Z,12.00
2019-03-30T04:46:01.121Z,12.00
2019-03-30T04:47:01.089Z,16.00
2019-03-30T04:48:01.088Z,16.00
2019-03-30T04:49:01.067Z,16.00
2019-03-30T04:50:01.067Z,24.00
2019-03-30T04:51:01.058Z,28.00
2019-03-30T04:52:01.041Z,28.00
2019-03-30T04:53:01.025Z,36.00
2019-03-30T04:54:01.027Z,40.00
2019-03-30T04:55:01.007Z,44.00
2019-03-30T04:56:01.012Z,52.00
2019-03-30T04:57:00.982Z,60.00
2019-03-30T04:58:00.981Z,68.00
2019-03-30T04:59:00.960Z,80.00
2019-03-30T05:00:00.957Z,88.00
2019-03-30T05:01:00.979Z,104.00
2019-03-30T05:02:00.938Z,116.00
2019-03-30T05:03:00.921Z,128.00
2019-03-30T05:04:00.914Z,144.00
2019-03-30T05:05:00.900Z,164.00
2019-03-30T05:06:00.889Z,180.00
2019-03-30T05:07:00.893Z,196.00
2019-03-30T05:08:00.868Z,220.00
2019-03-30T05:09:00.859Z,244.00
2019-03-30T05:10:00.853Z,264.00
2019-03-30T05:11:00.832Z,292.00
2019-03-30T05:12:00.846Z,320.00
2019-03-30T05:13:00.815Z,348.00
2019-03-30T05:14:00.803Z,380.00
2019-03-30T05:15:00.788Z,408.00
2019-03-30T05:16:00.782Z,444.00
2019-03-30T05:17:00.780Z,476.00
2019-03-30T05:18:00.761Z,508.00
2019-03-30T05:19:00.753Z,540.00
2019-03-30T05:20:00.744Z,580.00
2019-03-30T05:21:00.724Z,620.00
2019-03-30T05:22:11.458Z,668.00
2019-03-30T05:23:01.701Z,720.00
2019-03-30T05:24:00.697Z,776.00
2019-03-30T05:25:00.697Z,840.00
2019-03-30T05:26:00.673Z,908.00
2019-03-30T05:27:00.672Z,972.00
2019-03-30T05:28:00.652Z,1044.00
2019-03-30T05:29:00.637Z,1120.00
2019-03-30T05:30:01.642Z,1168.00
2019-03-30T05:31:00.627Z,1196.00
2019-03-30T05:32:00.630Z,1284.00
2019-03-30T05:33:06.123Z,1436.00
2019-03-30T05:34:01.596Z,1576.00
2019-03-30T05:35:00.572Z,1660.00
2019-03-30T05:36:00.571Z,1740.00
2019-03-30T05:37:00.565Z,1820.00
2019-03-30T05:38:01.552Z,1928.00
2019-03-30T05:39:00.528Z,2060.00
2019-03-30T05:40:00.521Z,2172.00
2019-03-30T05:41:00.586Z,2244.00
2019-03-30T05:42:00.516Z,2364.00
2019-03-30T05:43:00.486Z,2452.00
2019-03-30T05:44:00.477Z,2548.00
2019-03-30T05:45:00.491Z,2636.00
2019-03-30T05:46:00.456Z,2724.00
2019-03-30T05:47:00.460Z,2800.00
2019-03-30T05:48:00.436Z,2852.00
2019-03-30T05:49:00.419Z,2844.00
2019-03-30T05:50:00.512Z,2960.00
2019-03-30T05:51:00.396Z,3172.00
2019-03-30T05:52:00.409Z,3308.00
2019-03-30T05:53:00.409Z,3396.00
2019-03-30T05:54:00.374Z,3480.00
2019-03-30T05:55:00.489Z,3528.00
2019-03-30T05:56:00.346Z,3592.00
2019-03-30T05:57:00.347Z,3624.00
2019-03-30T05:58:00.324Z,3536.00
2019-03-30T05:59:00.309Z,3400.00
2019-03-30T06:00:00.326Z,3348.00
2019-03-30T06:01:00.288Z,3396.00
2019-03-30T06:02:00.295Z,3344.00
2019-03-30T06:03:00.266Z,3460.00
2019-03-30T06:04:00.258Z,3580.00
2019-03-30T06:05:03.082Z,3512.00
2019-03-30T06:06:00.238Z,3540.00
2019-03-30T06:07:00.234Z,3544.00
2019-03-30T06:08:00.214Z,3580.00
2019-03-30T06:09:00.202Z,3800.00
2019-03-30T06:10:00.444Z,3896.00
2019-03-30T06:11:00.184Z,3916.00
2019-03-30T06:12:00.187Z,3816.00
2019-03-30T06:13:00.154Z,3972.00
2019-03-30T06:14:00.148Z,4476.00
2019-03-30T06:15:00.324Z,4948.00
2019-03-30T06:16:00.130Z,5180.00
2019-03-30T06:17:00.123Z,5276.00
2019-03-30T06:18:00.104Z,5344.00
2019-03-30T06:19:00.094Z,5408.00
2019-03-30T06:20:00.113Z,5460.00
2019-03-30T06:21:00.070Z,5352.00
2019-03-30T06:22:00.073Z,5552.00
2019-03-30T06:23:00.045Z,5616.00
2019-03-30T06:24:00.040Z,5564.00
2019-03-30T06:25:00.021Z,5720.00
2019-03-30T06:26:00.015Z,5772.00
2019-03-30T06:27:00.030Z,5816.00
2019-03-30T06:27:59.991Z,5876.00
2019-03-30T06:28:59.977Z,6020.00
2019-03-30T06:29:59.971Z,6080.00
2019-03-30T06:30:59.956Z,6128.00
2019-03-30T06:31:59.951Z,6176.00
2019-03-30T06:32:59.954Z,6204.00
2019-03-30T06:33:59.945Z,6260.00
2019-03-30T06:34:59.911Z,6292.00
2019-03-30T06:35:59.905Z,6336.00
2019-03-30T06:36:59.894Z,6408.00
2019-03-30T06:37:59.901Z,6424.00
2019-03-30T06:38:59.869Z,6432.00
2019-03-30T06:39:59.864Z,6428.00
2019-03-30T06:40:59.842Z,6432.00
2019-03-30T06:41:59.837Z,6432.00
2019-03-30T06:42:59.845Z,6452.00
2019-03-30T06:43:59.824Z,6524.00
2019-03-30T06:44:59.802Z,6568.00
2019-03-30T06:45:59.795Z,6604.00
2019-03-30T06:46:59.777Z,6648.00
2019-03-30T06:47:59.784Z,6692.00
2019-03-30T06:48:59.766Z,6696.00
2019-03-30T06:49:59.752Z,6716.00
2019-03-30T06:50:59.739Z,6780.00
2019-03-30T06:51:59.752Z,6840.00
2019-03-30T06:52:59.729Z,6880.00
2019-03-30T06:53:59.706Z,6908.00
2019-03-30T06:54:59.697Z,6944.00
2019-03-30T06:55:59.684Z,6956.00
2019-03-30T06:56:59.676Z,7004.00
2019-03-30T06:57:59.730Z,7036.00
2019-03-30T06:58:59.646Z,7052.00
2019-03-30T06:59:59.639Z,7072.00
2019-03-30T07:00:59.698Z,7080.00
2019-03-30T07:01:59.628Z,7108.00
2019-03-30T07:02:59.613Z,7172.00
2019-03-30T07:03:59.597Z,7248.00
2019-03-30T07:04:59.576Z,7284.00
2019-03-30T07:05:59.574Z,7332.00
2019-03-30T07:06:59.553Z,7388.00
2019-03-30T07:07:59.561Z,7444.00
2019-03-30T07:08:59.531Z,7484.00
2019-03-30T07:09:59.523Z,7536.00
2019-03-30T07:10:59.512Z,7592.00
2019-03-30T07:11:59.511Z,7644.00
2019-03-30T07:12:59.504Z,7704.00
2019-03-30T07:13:59.486Z,7772.00
2019-03-30T07:14:59.464Z,7828.00
2019-03-30T07:15:59.456Z,7880.00
2019-03-30T07:17:01.791Z,7904.00
2019-03-30T07:17:59.456Z,7952.00
2019-03-30T07:18:59.417Z,8020.00
2019-03-30T07:19:59.411Z,8084.00
2019-03-30T07:20:59.395Z,8132.00
2019-03-30T07:21:59.390Z,8176.00
2019-03-30T07:23:11.244Z,8236.00
2019-03-30T07:24:00.361Z,8284.00
2019-03-30T07:24:59.356Z,8308.00
2019-03-30T07:25:59.339Z,8392.00
2019-03-30T07:26:59.331Z,8460.00
2019-03-30T07:27:59.333Z,8528.00
2019-03-30T07:28:59.313Z,8608.00
2019-03-30T07:29:59.297Z,8704.00
2019-03-30T07:30:59.292Z,8788.00
2019-03-30T07:31:59.276Z,8892.00
2019-03-30T07:32:59.284Z,9000.00
2019-03-30T07:33:59.250Z,9092.00
2019-03-30T07:34:59.245Z,9216.00
2019-03-30T07:35:59.229Z,9336.00
2019-03-30T07:36:59.221Z,9492.00
2019-03-30T07:37:59.220Z,9648.00
2019-03-30T07:38:59.201Z,9728.00
2019-03-30T07:39:59.183Z,9864.00
2019-03-30T07:40:59.182Z,9972.00
2019-03-30T07:41:59.173Z,10068.00
2019-03-30T07:42:59.178Z,10148.00
2019-03-30T07:43:59.140Z,10196.00
2019-03-30T07:44:59.133Z,10288.00
2019-03-30T07:45:59.122Z,10404.00
2019-03-30T07:46:59.113Z,10480.00
2019-03-30T07:47:59.118Z,10568.00
2019-03-30T07:48:59.090Z,10656.00
2019-03-30T07:49:59.073Z,10708.00
2019-03-30T07:50:59.071Z,10840.00
2019-03-30T07:51:59.051Z,10964.00
2019-03-30T07:52:59.072Z,11164.00
2019-03-30T07:53:59.028Z,11556.00
2019-03-30T07:54:59.022Z,12152.00
2019-03-30T07:56:08.425Z,13592.00
2019-03-30T07:57:06.147Z,14944.00
2019-03-30T07:58:00.063Z,14720.00
2019-03-30T07:58:58.993Z,14112.00
2019-03-30T07:59:58.962Z,14304.00
2019-03-30T08:00:58.956Z,14976.00
2019-03-30T08:01:58.941Z,15552.00
2019-03-30T08:02:58.935Z,16384.00
2019-03-30T08:03:58.937Z,18112.00
2019-03-30T08:04:58.937Z,19840.00
2019-03-30T08:05:58.895Z,21632.00
2019-03-30T08:06:58.895Z,23648.00
2019-03-30T08:07:58.878Z,25440.00
2019-03-30T08:08:58.881Z,26240.00
2019-03-30T08:09:58.853Z,25440.00
2019-03-30T08:10:58.849Z,24384.00
2019-03-30T08:11:58.827Z,23168.00
2019-03-30T08:12:58.823Z,22272.00
2019-03-30T08:13:58.830Z,21568.00
2019-03-30T08:14:58.801Z,20384.00
2019-03-30T08:15:58.784Z,18592.00
2019-03-30T08:16:58.776Z,17984.00
2019-03-30T08:17:58.763Z,18144.00
2019-03-30T08:18:58.770Z,17024.00
2019-03-30T08:19:58.743Z,15424.00
2019-03-30T08:20:58.740Z,15552.00
2019-03-30T08:21:58.719Z,15616.00
2019-03-30T08:22:58.711Z,15296.00
2019-03-30T08:23:58.711Z,15392.00
2019-03-30T08:24:58.689Z,14848.00
2019-03-30T08:25:58.676Z,14656.00
2019-03-30T08:26:58.669Z,14448.00
2019-03-30T08:27:58.660Z,14364.00
2019-03-30T08:28:58.663Z,14360.00
2019-03-30T08:29:58.628Z,14348.00
2019-03-30T08:30:58.621Z,14340.00
2019-03-30T08:31:58.605Z,14372.00
2019-03-30T08:32:58.602Z,14440.00
2019-03-30T08:33:58.598Z,14548.00
2019-03-30T08:34:58.576Z,14628.00
2019-03-30T08:35:58.560Z,14716.00
2019-03-30T08:36:59.485Z,14844.00
2019-03-30T08:37:58.536Z,15048.00
2019-03-30T08:38:58.544Z,15224.00
2019-03-30T08:39:58.514Z,15584.00
2019-03-30T08:40:58.510Z,16096.00
2019-03-30T08:41:58.493Z,17440.00
2019-03-30T08:42:58.487Z,17696.00
2019-03-30T08:43:58.494Z,18144.00
2019-03-30T08:44:58.471Z,19552.00
2019-03-30T08:45:58.453Z,21472.00
2019-03-30T08:46:58.443Z,22880.00
2019-03-30T08:47:58.428Z,22688.00
2019-03-30T08:48:58.436Z,21952.00
2019-03-30T08:49:58.409Z,21696.00
2019-03-30T08:50:58.405Z,23264.00
2019-03-30T08:51:58.382Z,25376.00
2019-03-30T08:52:58.381Z,24416.00
2019-03-30T08:53:58.376Z,23872.00
2019-03-30T08:54:58.357Z,25856.00
2019-03-30T08:55:58.341Z,29280.00
2019-03-30T08:56:58.361Z,29024.00
2019-03-30T08:57:58.323Z,32064.00
2019-03-30T08:58:58.328Z,39456.00
2019-03-30T08:59:58.298Z,43168.00
2019-03-30T09:00:58.291Z,37088.00
2019-03-30T09:01:58.278Z,27968.00
2019-03-30T09:02:58.276Z,22688.00
2019-03-30T09:03:58.266Z,21088.00
2019-03-30T09:04:58.248Z,20576.00
2019-03-30T09:05:58.236Z,20160.00
2019-03-30T09:06:58.225Z,19808.00
2019-03-30T09:07:58.211Z,19648.00
2019-03-30T09:08:58.242Z,19520.00
2019-03-30T09:09:58.189Z,19328.00
2019-03-30T09:10:58.181Z,19232.00
2019-03-30T09:11:58.177Z,19168.00
2019-03-30T09:12:58.162Z,19104.00
2019-03-30T09:13:58.159Z,19040.00
2019-03-30T09:14:58.137Z,19008.00
2019-03-30T09:15:58.124Z,19168.00
2019-03-30T09:16:58.114Z,19456.00
2019-03-30T09:17:58.099Z,21792.00
2019-03-30T09:18:58.105Z,31456.00
2019-03-30T09:19:58.078Z,39712.00
2019-03-30T09:20:58.069Z,40288.00
2019-03-30T09:21:58.072Z,41184.00
2019-03-30T09:22:58.048Z,41440.00
2019-03-30T09:24:08.790Z,42432.00
2019-03-30T09:24:59.021Z,42144.00
2019-03-30T09:25:58.012Z,42720.00
2019-03-30T09:26:58.003Z,43840.00
2019-03-30T09:27:57.991Z,44960.00
2019-03-30T09:28:57.992Z,45376.00
2019-03-30T09:29:57.971Z,44928.00
2019-03-30T09:30:57.973Z,45568.00
2019-03-30T09:31:57.950Z,45728.00
2019-03-30T09:32:57.936Z,46432.00
2019-03-30T09:33:57.945Z,46528.00
2019-03-30T09:34:57.912Z,45696.00
2019-03-30T09:35:57.916Z,47072.00
2019-03-30T09:36:57.895Z,47680.00
2019-03-30T09:37:57.890Z,47424.00
2019-03-30T09:38:57.880Z,48096.00
2019-03-30T09:39:57.860Z,49760.00
2019-03-30T09:40:57.850Z,50208.00
2019-03-30T09:41:57.862Z,50272.00
2019-03-30T09:42:57.821Z,50912.00
2019-03-30T09:43:57.830Z,50208.00
2019-03-30T09:44:57.803Z,51392.00
2019-03-30T09:45:57.805Z,52608.00
2019-03-30T09:46:57.784Z,52416.00
2019-03-30T09:47:57.782Z,51168.00
2019-03-30T09:48:57.784Z,50208.00
2019-03-30T09:49:57.769Z,52064.00
2019-03-30T09:50:57.735Z,52992.00
2019-03-30T09:51:57.730Z,53152.00
2019-03-30T09:52:57.737Z,53792.00
2019-03-30T09:53:57.723Z,52832.00
2019-03-30T09:54:57.693Z,52416.00
2019-03-30T09:55:57.690Z,54144.00
2019-03-30T09:56:57.674Z,53824.00
2019-03-30T09:57:57.692Z,54560.00
2019-03-30T09:58:57.662Z,55232.00
2019-03-30T09:59:57.685Z,54976.00
2019-03-30T10:00:57.625Z,56160.00
2019-03-30T10:01:57.622Z,57184.00
2019-03-30T10:02:57.608Z,57184.00
2019-03-30T10:03:57.627Z,58816.00
2019-03-30T10:04:57.583Z,59232.00
2019-03-30T10:05:57.589Z,59264.00
2019-03-30T10:06:57.562Z,57984.00
2019-03-30T10:07:57.560Z,58592.00
2019-03-30T10:08:57.559Z,60832.00
2019-03-30T10:09:57.538Z,60256.00
2019-03-30T10:10:57.528Z,59488.00
2019-03-30T10:11:57.527Z,60896.00
2019-03-30T10:12:57.496Z,62368.00
2019-03-30T10:13:57.514Z,62464.00
2019-03-30T10:14:57.478Z,61856.00
2019-03-30T10:15:57.471Z,61504.00
2019-03-30T10:16:57.521Z,61184.00
2019-03-30T10:17:57.451Z,62048.00
2019-03-30T10:18:57.458Z,61504.00
2019-03-30T10:20:04.098Z,61856.00
2019-03-30T10:20:58.410Z,63136.00
2019-03-30T10:21:57.403Z,63552.00
2019-03-30T10:22:57.392Z,63424.00
2019-03-30T10:23:57.424Z,62912.00
2019-03-30T10:24:58.514Z,64832.00
2019-03-30T10:25:57.360Z,65568.00
2019-03-30T10:26:57.347Z,64512.00
2019-03-30T10:27:57.347Z,64096.00
2019-03-30T10:28:57.338Z,65504.00
2019-03-30T10:29:57.321Z,66560.00
2019-03-30T10:30:57.305Z,64928.00
2019-03-30T10:31:59.908Z,65408.00
2019-03-30T10:32:57.282Z,66336.00
2019-03-30T10:33:57.310Z,66944.00
2019-03-30T10:34:57.259Z,67168.00
2019-03-30T10:35:57.255Z,68128.00
2019-03-30T10:36:57.312Z,68864.00
2019-03-30T10:37:58.237Z,69504.00
2019-03-30T10:38:57.218Z,71168.00
2019-03-30T10:39:57.263Z,71872.00
2019-03-30T10:40:57.198Z,72032.00
2019-03-30T10:41:57.190Z,72256.00
2019-03-30T10:42:57.204Z,71808.00
2019-03-30T10:43:57.169Z,73152.00
2019-03-30T10:44:57.210Z,73920.00
2019-03-30T10:45:57.172Z,74112.00
2019-03-30T10:46:57.135Z,74752.00
2019-03-30T10:47:57.138Z,75168.00
2019-03-30T10:48:57.124Z,73952.00
2019-03-30T10:49:57.125Z,73184.00
2019-03-30T10:50:57.093Z,73216.00
2019-03-30T10:51:57.095Z,75936.00
2019-03-30T10:52:57.069Z,78272.00
2019-03-30T10:53:57.067Z,76960.00
2019-03-30T10:54:57.108Z,76096.00
2019-03-30T10:55:57.041Z,75552.00
2019-03-30T10:56:57.027Z,75392.00
2019-03-30T10:57:58.619Z,76928.00
2019-03-30T10:58:57.004Z,78240.00
2019-03-30T10:59:57.015Z,78976.00
2019-03-30T11:00:56.989Z,80032.00
2019-03-30T11:01:57.003Z,79872.00
2019-03-30T11:02:56.961Z,78784.00
2019-03-30T11:03:56.960Z,78144.00
2019-03-30T11:04:56.963Z,79008.00
2019-03-30T11:05:56.934Z,80800.00
2019-03-30T11:06:56.920Z,81632.00
2019-03-30T11:07:56.931Z,82432.00
2019-03-30T11:08:56.906Z,81536.00
2019-03-30T11:09:56.917Z,80928.00
2019-03-30T11:10:56.879Z,80512.00
2019-03-30T11:11:56.884Z,79328.00
2019-03-30T11:12:56.855Z,81376.00
2019-03-30T11:13:56.926Z,82048.00
2019-03-30T11:14:56.858Z,82464.00
2019-03-30T11:15:56.844Z,82336.00
2019-03-30T11:16:56.821Z,83456.00
2019-03-30T11:17:56.810Z,78272.00
2019-03-30T11:18:56.802Z,70048.00
2019-03-30T11:19:56.804Z,66048.00
2019-03-30T11:20:56.769Z,71456.00
2019-03-30T11:21:56.767Z,80768.00
2019-03-30T11:22:56.766Z,83296.00
2019-03-30T11:23:56.760Z,80832.00
2019-03-30T11:25:07.484Z,80640.00
2019-03-30T11:25:57.718Z,81984.00
2019-03-30T11:26:56.711Z,81248.00
2019-03-30T11:27:56.694Z,82880.00
2019-03-30T11:28:56.687Z,81952.00
2019-03-30T11:29:56.763Z,81760.00
2019-03-30T11:30:56.666Z,83040.00
2019-03-30T11:31:56.657Z,83360.00
2019-03-30T11:32:56.647Z,83648.00
2019-03-30T11:33:56.629Z,84864.00
2019-03-30T11:34:56.638Z,84352.00
2019-03-30T11:35:56.619Z,83488.00
2019-03-30T11:36:56.607Z,82208.00
2019-03-30T11:37:56.584Z,83936.00
2019-03-30T11:38:56.581Z,85696.00
2019-03-30T11:39:56.585Z,87552.00
2019-03-30T11:40:56.557Z,87680.00
2019-03-30T11:41:56.554Z,85600.00
2019-03-30T11:42:56.543Z,84672.00
2019-03-30T11:43:56.523Z,82240.00
2019-03-30T11:44:56.532Z,23840.00
2019-03-30T11:45:56.498Z,81696.00
2019-03-30T11:46:56.493Z,83488.00
2019-03-30T11:47:56.490Z,86944.00
2019-03-30T11:48:56.475Z,87232.00
2019-03-30T11:49:56.474Z,86496.00
2019-03-30T11:50:56.461Z,88928.00
2019-03-30T11:51:56.436Z,87392.00
2019-03-30T11:52:56.434Z,85664.00
2019-03-30T11:53:56.417Z,84768.00
2019-03-30T11:54:56.442Z,82592.00
2019-03-30T11:55:56.394Z,84448.00
2019-03-30T11:56:56.393Z,89472.00
2019-03-30T11:57:56.371Z,88352.00
2019-03-30T11:58:56.372Z,82176.00
2019-03-30T11:59:56.371Z,80128.00
2019-03-30T12:00:56.351Z,79136.00
2019-03-30T12:01:56.339Z,79808.00
2019-03-30T12:02:56.330Z,37824.00
2019-03-30T12:03:56.310Z,55168.00
2019-03-30T12:04:56.340Z,20640.00
2019-03-30T12:05:56.290Z,69152.00
2019-03-30T12:06:56.281Z,76480.00
2019-03-30T12:07:56.267Z,89408.00
2019-03-30T12:08:56.261Z,84576.00
2019-03-30T12:09:56.258Z,91520.00
2019-03-30T12:10:56.249Z,88352.00
2019-03-30T12:11:56.230Z,83168.00
2019-03-30T12:12:56.221Z,96768.00
2019-03-30T12:13:56.217Z,88672.00
2019-03-30T12:14:56.217Z,88608.00
2019-03-30T12:15:56.182Z,93376.00
2019-03-30T12:16:56.194Z,88512.00
2019-03-30T12:17:56.164Z,24064.00
2019-03-30T12:18:56.157Z,74176.00
2019-03-30T12:19:56.157Z,74240.00
2019-03-30T12:20:56.134Z,25952.00
2019-03-30T12:21:56.117Z,31808.00
2019-03-30T12:22:56.114Z,28640.00
2019-03-30T12:23:56.121Z,93056.00